• Join FlightAware (Why Join?)
  • Login
  • US Flag 
05:05AM EDT


 

Airport Tracker/Info


-or-


 

Live Flight TrackerFlight Track Log ✈ N8596W ✈ 17-Sep-2013 ✈ KPNE - 2G9

Flight Track Log - Related Links

Times and Time Zones

All times are in EDT time to prevent confusion due to time zone crossing. See the N8596W flight status page for this flight to view local times or setup timezone preferences in your user account.

Time Position Orientation Groundspeed Altitude Reporting Facility
EDT Latitude Longitude Course Direction KTS MPH feet Rate Location/Type
03:40PM 40.1000 -75.0000 360° North 86 99 500  Level Philadelphia TRACON
03:41PM 40.1167 -75.0000 360° North 94 108 1,200 960 Climbing Philadelphia TRACON
03:42PM 40.1333 -75.0167 323° Northwest 91 105 2,000 900 Climbing Philadelphia TRACON
03:43PM 40.1500 -75.0500 303° West 102 117 3,100 900 Climbing Philadelphia TRACON
03:44PM 40.1500 -75.0833 270° West 112 129 3,900 660 Climbing Philadelphia TRACON
03:45PM 40.1500 -75.1167 270° West 101 116 4,300 480 Climbing Philadelphia TRACON
03:46PM 40.1667 -75.1500 303° West 111 128 5,000 660 Climbing Philadelphia TRACON
03:47PM 40.1667 -75.2000 270° West 115 132 5,700 600 Climbing Philadelphia TRACON
03:48PM 40.1667 -75.2333 270° West 107 123 6,300 480 Climbing Philadelphia TRACON
03:49PM 40.1833 -75.2667 303° West 112 129 6,700 420 Climbing Philadelphia TRACON
03:50PM 40.1833 -75.3167 270° West 109 125 7,100 360 Climbing Philadelphia TRACON
03:51PM 40.1833 -75.3500 270° West 111 128 7,500 360 Climbing Philadelphia TRACON
03:52PM 40.2000 -75.3833 303° West 117 135 7,800 240 Climbing Philadelphia TRACON
03:53PM 40.2000 -75.4333 270° West 118 136 8,000 60 Climbing Philadelphia TRACON
03:54PM 40.2167 -75.4833 294° West 139 160 8,000  Level Philadelphia TRACON
03:55PM 40.2167 -75.5333 270° West 137 158 8,000  Level Philadelphia TRACON
03:56PM 40.2167 -75.5833 270° West 135 155 8,000 -60 Level Philadelphia TRACON
03:57PM 40.2333 -75.6333 294° West 136 157 7,900  Descending Philadelphia TRACON
03:58PM 40.2333 -75.6833 270° West 135 155 8,000  Climbing Philadelphia TRACON
03:59PM 40.2333 -75.7333 270° West 135 155 8,000  Level Philadelphia TRACON
04:00PM 40.2333 -75.7833 270° West 134 154 8,000  Level Philadelphia TRACON
04:02PM 40.2500 -75.8539 270° West  Level FlightAware Approximate
04:08PM 40.2656 -76.1942 270° West 140 161 8,000  Level Cleveland Center
04:09PM 40.2722 -76.2022 274° West  Level FlightAware Approximate
04:09PM 40.2647 -76.2442 269° West 137 158 8,000  Level Cleveland Center
04:10PM 40.2745 -76.2522 273° West  Level FlightAware Approximate
04:11PM 40.2768 -76.3022 273° West  Level FlightAware Approximate
04:11PM 40.2658 -76.2953 272° West 140 161 8,000  Level Cleveland Center
04:12PM 40.2790 -76.3522 273° West  Level FlightAware Approximate
04:12PM 40.2675 -76.3461 272° West 141 162 8,100  Level Cleveland Center
04:13PM 40.2812 -76.4022 273° West  Level FlightAware Approximate
04:13PM 40.2706 -76.3964 275° West 139 160 8,100  Level Cleveland Center
04:14PM 40.2833 -76.4522 270° West  Level FlightAware Approximate
04:14PM 40.2736 -76.4475 274° West 141 162 8,000  Level Cleveland Center
04:15PM 40.2750 -76.5081 272° West 139 160 8,000  Level Cleveland Center
04:16PM 40.2761 -76.5594 272° West 140 161 8,000 -60 Level Cleveland Center
04:17PM 40.2767 -76.6092 271° West 139 160 7,900  Descending Cleveland Center
04:18PM 40.2794 -76.6603 274° West 139 160 8,000  Climbing Cleveland Center
04:19PM 40.2808 -76.7089 272° West 137 158 8,000 -60 Level Cleveland Center
04:20PM 40.2811 -76.7581 270° West 135 155 7,900 -60 Descending Cleveland Center
04:21PM 40.2836 -76.8211 273° West 140 161 7,900  Level Cleveland Center
04:22PM 40.2861 -76.8711 274° West 139 160 8,000  Climbing Cleveland Center
04:23PM 40.2867 -76.9192 271° West 134 154 7,900  Descending Cleveland Center
04:24PM 40.2892 -76.9694 274° West 137 158 8,000  Climbing Cleveland Center
04:25PM 40.2889 -77.0186 270° West 135 155 8,000  Level Cleveland Center
04:26PM 40.2897 -77.0694 271° West 138 159 8,100  Climbing Cleveland Center
04:27PM 40.2922 -77.1300 273° West 139 160 8,000 -60 Descending Cleveland Center
04:28PM 40.2956 -77.1808 275° West 139 160 8,000 -60 Level Cleveland Center
04:29PM 40.2958 -77.2294 270° West 141 162 7,900  Descending Cleveland Center
04:30PM 40.2964 -77.2778 271° West 136 157 8,000  Climbing Cleveland Center
04:31PM 40.2981 -77.3389 272° West 139 160 8,000  Level Cleveland Center
04:32PM 40.2994 -77.3878 272° West 137 158 8,000  Level Cleveland Center
04:33PM 40.3000 -77.4389 271° West 139 160 8,000  Level Cleveland Center
04:34PM 40.3006 -77.4900 271° West 140 161 8,000  Level Cleveland Center
04:35PM 40.3028 -77.5403 273° West 139 160 8,000  Level Cleveland Center
04:36PM 40.3039 -77.6011 271° West 140 161 8,000  Level Cleveland Center
04:37PM 40.3056 -77.6497 273° West 138 159 8,000 -60 Level Cleveland Center
04:38PM 40.3064 -77.7000 271° West 137 158 7,900 -60 Descending Cleveland Center
04:39PM 40.3075 -77.7506 272° West 140 161 7,900  Level Cleveland Center
04:41PM 40.3086 -77.8000 272° West 138 159 8,000  Climbing Cleveland Center
04:42PM 40.3100 -77.8503 272° West 138 159 7,900  Descending Cleveland Center
04:42PM 40.3106 -77.8917 271° West 138 159 8,000 60 Climbing Cleveland Center
04:43PM 40.3094 -77.9128 266° West 141 162 8,000  Level Cleveland Center
04:43PM 40.3092 -77.9408 269° West 138 159 8,000  Level Cleveland Center
04:44PM 40.3069 -77.9617 262° West 138 159 8,000  Level Cleveland Center
04:44PM 40.2992 -77.9886 249° West 137 158 8,000  Level Cleveland Center
04:45PM 40.2906 -78.0092 241° Southwest 143 165 8,000  Level Cleveland Center
04:45PM 40.2814 -78.0331 243° Southwest 141 162 8,000  Level Cleveland Center
04:46PM 40.2758 -78.0547 251° West 138 159 8,000  Level Cleveland Center
04:46PM 40.2692 -78.0861 254° West 140 161 8,000  Level Cleveland Center
04:47PM 40.2661 -78.1028 256° West 139 160 8,000  Level Cleveland Center
04:47PM 40.2614 -78.1344 259° West 137 158 8,000  Level Cleveland Center
04:48PM 40.2553 -78.1594 252° West 135 155 8,000  Level Cleveland Center
04:48PM 40.2497 -78.1767 247° West 136 157 8,000  Level Cleveland Center
04:49PM 40.2425 -78.2033 250° West 130 150 8,000 60 Level Cleveland Center
04:49PM 40.2358 -78.2214 244° Southwest 136 157 8,100 60 Climbing Cleveland Center
04:50PM 40.2292 -78.2478 252° West 132 152 8,100  Level Cleveland Center
04:50PM 40.2239 -78.2689 252° West 136 157 8,100 -120 Level Cleveland Center
04:51PM 40.2178 -78.2953 253° West 135 155 8,000 -120 Descending Cleveland Center
04:51PM 40.2117 -78.3194 252° West 139 160 8,000  Level Cleveland Center
04:52PM 40.2067 -78.3439 255° West 138 159 8,000  Level Cleveland Center
04:52PM 40.2019 -78.3672 255° West 139 160 8,000  Level Cleveland Center
04:53PM 40.1931 -78.4014 251° West 139 160 8,000  Level Cleveland Center
04:53PM 40.1897 -78.4147 252° West 139 160 8,000  Level Cleveland Center
04:54PM 40.1836 -78.4508 258° West 140 161 8,000  Level Cleveland Center
04:54PM 40.1797 -78.4628 247° West 138 159 8,000  Level Cleveland Center
04:55PM 40.1711 -78.5008 254° West 140 161 8,000  Level Cleveland Center
04:55PM 40.1656 -78.5128 239° Southwest 139 160 8,000  Level Cleveland Center
04:56PM 40.1569 -78.5483 252° West 141 162 8,000 -120 Level Cleveland Center
04:56PM 40.1531 -78.5658 254° West 139 160 7,900 -420 Descending Cleveland Center
04:57PM 40.1458 -78.5978 254° West 141 162 7,600 -600 Descending Cleveland Center
04:57PM 40.1406 -78.6158 249° West 148 170 7,300 -720 Descending Cleveland Center
04:58PM 40.1317 -78.6594 255° West 146 168 6,900 -540 Descending Cleveland Center
04:58PM 40.1300 -78.6719 260° West 149 171 6,800 -240 Descending Cleveland Center
04:59PM 40.1231 -78.7106 257° West 145 167 6,700 -240 Descending Cleveland Center
04:59PM 40.1217 -78.7225 261° West 144 166 6,600 -420 Descending Cleveland Center
05:00PM 40.1192 -78.7636 265° West 146 168 6,300 -360 Descending Cleveland Center
05:02PM 40.0898 -78.8119 232° Southwest  Level FlightAware Approximate
05:09PM 40.0333 -79.0000 254° West  Level FlightAware Approximate
05:10PM 40.0389 -79.0150 254° West  Level Estimated